Terminal Aerodrome Forecast
Issued by NWS

Home | Current Version | Previous Version | Text Only | Print | Product List | Glossary On
Versions: 1 2 3 4 5 6 7 8 9 10 11 12 13 14
000
FTUS45 KTFX 282300
TAFHVR
TAF
KHVR 282338Z 2900/2924 01008KT P6SM SCT100 BKN250
     FM290200 02012KT P6SM VCSH BKN100
      TEMPO 2902/2906 -SHRA BKN070
     FM290700 36012KT P6SM BKN070
     FM291000 36006KT P6SM BKN028
     FM291600 12005KT P6SM BKN250
     FM292300 12008KT P6SM SKC=

USA.gov is the U.S. government's official web portal to all federal, state and local government web resources and services.